createdAt,value
2022-10-13T00:00:47.992Z,1022.025452
2022-10-13T00:01:52.025Z,1021.97998
2022-10-13T00:02:46.197Z,1021.987976
2022-10-13T00:03:51.685Z,1021.987976
2022-10-13T00:05:48.188Z,1021.915527
2022-10-13T00:06:52.624Z,1021.934326
2022-10-13T00:07:46.996Z,1021.966614
2022-10-13T00:08:51.857Z,1021.985535
2022-10-13T00:10:46.944Z,1021.969604
2022-10-13T00:11:45.325Z,1021.961426
2022-10-13T00:12:53.277Z,1021.969604
2022-10-13T00:13:54.509Z,1021.950562
2022-10-13T00:15:38.926Z,1021.89093
2022-10-13T00:16:18.030Z,1021.828491
2022-10-13T00:17:17.177Z,1021.847351
2022-10-13T00:18:22.936Z,1021.90863
2022-10-13T00:19:21.118Z,1021.892578
2022-10-13T00:20:20.448Z,1021.898132
2022-10-13T00:21:21.971Z,1021.901428
2022-10-13T00:22:21.028Z,1021.826477
2022-10-13T00:23:21.367Z,1021.909363
2022-10-13T00:24:16.403Z,1021.946899
2022-10-13T00:25:17.571Z,1021.8396
2022-10-13T00:26:13.939Z,1021.851013
2022-10-13T00:27:15.323Z,1021.92334
2022-10-13T00:28:15.546Z,1021.888733
2022-10-13T00:29:07.528Z,1021.808228
2022-10-13T00:31:05.595Z,1021.797363
2022-10-13T00:32:09.649Z,1021.754578
2022-10-13T00:33:11.445Z,1021.729919
2022-10-13T00:34:04.015Z,1021.817627
2022-10-13T00:35:59.103Z,1021.697144
2022-10-13T00:36:58.381Z,1021.804626
2022-10-13T00:37:55.365Z,1021.815308
2022-10-13T00:38:52.895Z,1021.753296
2022-10-13T00:39:52.611Z,1021.774719
2022-10-13T00:40:50.619Z,1021.831726
2022-10-13T00:41:52.734Z,1021.794128
2022-10-13T00:42:46.914Z,1021.78009
2022-10-13T00:43:49.062Z,1021.822876
2022-10-13T00:45:44.938Z,1021.817627
2022-10-13T00:46:48.754Z,1021.820923
2022-10-13T00:47:50.364Z,1021.853455
2022-10-13T00:49:42.128Z,1021.801575
2022-10-13T00:51:28.748Z,1021.771973
2022-10-13T00:52:29.827Z,1021.702332
2022-10-13T00:53:27.195Z,1021.672668
2022-10-13T00:54:28.678Z,1021.778076
2022-10-13T00:56:27.074Z,1021.756775
2022-10-13T00:57:34.198Z,1021.727722
2022-10-13T00:58:35.243Z,1021.679504
2022-10-13T00:59:32.981Z,1021.674377
2022-10-13T01:01:34.130Z,1021.650513
2022-10-13T01:02:36.267Z,1021.653503
2022-10-13T01:03:32.591Z,1021.753235
2022-10-13T01:04:36.882Z,1021.661377
2022-10-13T01:05:31.174Z,1021.623718
2022-10-13T01:06:38.524Z,1021.658691
2022-10-13T01:07:36.349Z,1021.615845
2022-10-13T01:08:37.358Z,1021.562195
2022-10-13T01:09:35.296Z,1021.658691
2022-10-13T01:10:41.685Z,1021.623718
2022-10-13T01:11:37.075Z,1021.596863
2022-10-13T01:12:40.560Z,1021.634521
2022-10-13T01:13:35.100Z,1021.53241
2022-10-13T01:14:40.549Z,1021.569641
2022-10-13T01:16:41.008Z,1021.459351
2022-10-13T01:17:37.757Z,1021.419067
2022-10-13T01:18:40.979Z,1021.403015
2022-10-13T01:19:45.148Z,1021.422058
2022-10-13T01:20:39.050Z,1021.392212
2022-10-13T01:21:40.543Z,1021.41626
2022-10-13T01:22:37.548Z,1021.389404
2022-10-13T01:23:41.964Z,1021.36261
2022-10-13T01:24:35.845Z,1021.36261
2022-10-13T01:26:39.172Z,1021.327698
2022-10-13T01:27:49.087Z,1021.335754
2022-10-13T01:29:18.252Z,1021.317078
2022-10-13T01:29:58.263Z,1021.318909
2022-10-13T01:30:55.716Z,1021.332642
2022-10-13T01:32:01.639Z,1021.323608
2022-10-13T01:32:58.051Z,1021.339844
2022-10-13T01:33:59.999Z,1021.375061
2022-10-13T01:34:57.990Z,1021.305176
2022-10-13T01:36:06.357Z,1021.339844
2022-10-13T01:37:01.499Z,1021.316101
2022-10-13T01:38:07.263Z,1021.372131
2022-10-13T01:39:10.413Z,1021.383057
2022-10-13T01:41:10.864Z,1021.305786
2022-10-13T01:42:12.235Z,1021.332642
2022-10-13T01:43:09.899Z,1021.343262
2022-10-13T01:44:13.009Z,1021.262756
2022-10-13T01:45:10.554Z,1021.246887
2022-10-13T01:46:10.480Z,1021.220032
2022-10-13T01:47:08.393Z,1021.254333
2022-10-13T01:48:08.202Z,1021.243591
2022-10-13T01:49:03.407Z,1021.209106
2022-10-13T01:50:03.995Z,1021.257263
2022-10-13T01:51:05.935Z,1021.194702
2022-10-13T01:52:12.752Z,1021.17627
2022-10-13T01:53:15.563Z,1021.194702
2022-10-13T01:54:17.836Z,1021.208801
2022-10-13T01:55:22.931Z,1021.162598
2022-10-13T01:56:19.126Z,1021.211121
2022-10-13T01:57:21.758Z,1021.130615
2022-10-13T01:58:16.687Z,1021.181885
2022-10-13T01:59:18.953Z,1021.139038
2022-10-13T02:01:15.804Z,1021.171021
2022-10-13T02:02:15.920Z,1021.122986
2022-10-13T02:03:10.591Z,1021.076965
2022-10-13T02:04:36.948Z,1021.192688
2022-10-13T02:05:17.578Z,1021.149414
2022-10-13T02:06:16.748Z,1021.205017
2022-10-13T02:07:16.276Z,1021.113647
2022-10-13T02:08:15.762Z,1021.186096
2022-10-13T02:09:15.052Z,1021.151306
2022-10-13T02:10:15.488Z,1021.0849
2022-10-13T02:11:16.115Z,1021.13855
2022-10-13T02:12:11.874Z,1021.095764
2022-10-13T02:13:12.116Z,1021.060547
2022-10-13T02:14:07.442Z,1021.049561
2022-10-13T02:15:08.564Z,1021.058044
2022-10-13T02:16:05.398Z,1021.060547
2022-10-13T02:17:09.742Z,1021.0849
2022-10-13T02:18:09.146Z,1021.015259
2022-10-13T02:19:08.580Z,1020.983154
2022-10-13T02:20:10.579Z,1021.015259
2022-10-13T02:21:18.781Z,1020.907959
2022-10-13T02:22:16.348Z,1021.03125
2022-10-13T02:22:34.899Z,1020.961609
2022-10-13T02:23:31.410Z,1021.003418
2022-10-13T02:24:27.183Z,1020.99762
2022-10-13T02:25:34.163Z,1020.96814
2022-10-13T02:26:32.947Z,1021.027039
2022-10-13T02:27:32.313Z,1020.976013
2022-10-13T02:28:30.519Z,1020.99762
2022-10-13T02:29:27.156Z,1021.008484
2022-10-13T02:31:23.986Z,1021.008484
2022-10-13T02:32:32.361Z,1021.024475
2022-10-13T02:33:30.620Z,1020.973816
2022-10-13T02:34:33.932Z,1020.995544
2022-10-13T02:35:34.920Z,1021.022461
2022-10-13T02:36:33.205Z,1021.022461
2022-10-13T02:37:32.446Z,1020.995544
2022-10-13T02:38:31.040Z,1021.030212
2022-10-13T02:40:18.219Z,1021.059021
2022-10-13T02:41:05.827Z,1021.063232
2022-10-13T02:42:03.857Z,1021.07373
2022-10-13T02:43:02.101Z,1021.111511
2022-10-13T02:44:01.581Z,1020.982666
2022-10-13T02:46:00.626Z,1021.120056
2022-10-13T02:46:56.373Z,1021.050476
2022-10-13T02:47:58.962Z,1021.061218
2022-10-13T02:48:53.265Z,1021.061218
2022-10-13T02:50:52.854Z,1021.029236
2022-10-13T02:51:54.619Z,1021.083008
2022-10-13T02:52:49.029Z,1020.983643
2022-10-13T02:53:52.504Z,1021.00238
2022-10-13T02:54:48.376Z,1021.00238
2022-10-13T02:56:00.383Z,1021.010498
2022-10-13T02:56:56.313Z,1021.034424
2022-10-13T02:57:51.161Z,1021.018494
2022-10-13T02:58:57.237Z,1021.010498
2022-10-13T02:59:52.497Z,1021.052795
2022-10-13T03:00:55.094Z,1021.026001
2022-10-13T03:01:54.787Z,1020.929993
2022-10-13T03:02:49.516Z,1021.021301
2022-10-13T03:03:53.512Z,1020.964722
2022-10-13T03:04:47.931Z,1020.98822
2022-10-13T03:05:50.103Z,1020.972351
2022-10-13T03:06:53.110Z,1020.98822
2022-10-13T03:07:48.334Z,1020.972351
2022-10-13T03:08:57.693Z,1020.953918
2022-10-13T03:10:50.326Z,1020.937866
2022-10-13T03:11:49.807Z,1020.943481
2022-10-13T03:12:44.087Z,1020.908752
2022-10-13T03:13:43.380Z,1020.951538
2022-10-13T03:14:38.925Z,1020.878906
2022-10-13T03:15:40.493Z,1020.887024
2022-10-13T03:16:37.901Z,1020.929993
2022-10-13T03:17:39.120Z,1020.878906
2022-10-13T03:19:24.607Z,1020.888794
2022-10-13T03:20:04.594Z,1020.877808
2022-10-13T03:21:05.157Z,1020.815125
2022-10-13T03:22:05.722Z,1020.799072
2022-10-13T03:23:01.402Z,1020.767151
2022-10-13T03:24:01.497Z,1020.770386
2022-10-13T03:25:59.918Z,1020.815613
2022-10-13T03:26:58.041Z,1020.799622
2022-10-13T03:27:56.994Z,1020.864136
2022-10-13T03:28:52.701Z,1020.756836
2022-10-13T03:30:49.060Z,1020.74585
2022-10-13T03:31:50.276Z,1020.781189
2022-10-13T03:32:48.354Z,1020.797241
2022-10-13T03:33:50.169Z,1020.74585
2022-10-13T03:35:44.141Z,1020.756836
2022-10-13T03:36:44.278Z,1020.749268
2022-10-13T03:37:43.886Z,1020.724731
2022-10-13T03:38:38.382Z,1020.665527
2022-10-13T03:39:37.913Z,1020.628113
2022-10-13T03:40:33.199Z,1020.670959
2022-10-13T03:41:34.247Z,1020.695557
2022-10-13T03:42:29.891Z,1020.713318
2022-10-13T03:43:37.485Z,1020.737244
2022-10-13T03:44:29.681Z,1020.691772
2022-10-13T03:45:32.248Z,1020.600281
2022-10-13T03:46:25.818Z,1020.61615
2022-10-13T03:47:30.163Z,1020.667053
2022-10-13T03:48:23.003Z,1020.594604
2022-10-13T03:49:23.988Z,1020.643005
2022-10-13T03:51:24.609Z,1020.56012
2022-10-13T03:52:23.614Z,1020.549255
2022-10-13T03:53:25.587Z,1020.56012
2022-10-13T03:54:23.662Z,1020.482544
2022-10-13T03:55:27.441Z,1020.525269
2022-10-13T03:56:22.028Z,1020.482544
2022-10-13T03:57:22.123Z,1020.512634
2022-10-13T03:58:17.379Z,1020.509338
2022-10-13T03:59:17.121Z,1020.555481
2022-10-13T04:00:12.710Z,1020.544006
2022-10-13T04:01:13.045Z,1020.490356
2022-10-13T04:02:11.962Z,1020.552185
2022-10-13T04:03:06.478Z,1020.482544
2022-10-13T04:04:10.129Z,1020.482544
2022-10-13T04:05:33.511Z,1020.468689
2022-10-13T04:06:14.697Z,1020.412292
2022-10-13T04:07:15.078Z,1020.487122
2022-10-13T04:08:10.360Z,1020.446472
2022-10-13T04:09:10.788Z,1020.47113
2022-10-13T04:11:08.501Z,1020.479065
2022-10-13T04:12:09.075Z,1020.422546
2022-10-13T04:13:07.170Z,1020.403503
2022-10-13T04:14:06.803Z,1020.392578
2022-10-13T04:16:02.708Z,1020.435486
2022-10-13T04:16:58.380Z,1020.389954
2022-10-13T04:18:02.038Z,1020.386963
2022-10-13T04:18:57.028Z,1020.443604
2022-10-13T04:20:02.518Z,1020.432739
2022-10-13T04:21:03.192Z,1020.400818
2022-10-13T04:22:11.188Z,1020.331116
2022-10-13T04:23:09.607Z,1020.360657
2022-10-13T04:24:09.620Z,1020.406555
2022-10-13T04:26:12.952Z,1020.433472
2022-10-13T04:27:08.231Z,1020.3797
2022-10-13T04:28:08.666Z,1020.449402
2022-10-13T04:29:05.307Z,1020.357971
2022-10-13T04:31:06.839Z,1020.336182
2022-10-13T04:32:23.366Z,1020.297363
2022-10-13T04:33:20.940Z,1020.282227
2022-10-13T04:34:24.787Z,1020.292542
2022-10-13T04:35:21.165Z,1020.262817
2022-10-13T04:36:23.187Z,1020.329712
2022-10-13T04:37:19.875Z,1020.330688
2022-10-13T04:38:26.635Z,1020.260986
2022-10-13T04:39:21.831Z,1020.26947
2022-10-13T04:41:30.940Z,1020.283386
2022-10-13T04:44:03.068Z,1020.241882
2022-10-13T04:44:10.215Z,1020.258972
2022-10-13T04:46:13.003Z,1020.260742
2022-10-13T04:47:13.739Z,1020.28009
2022-10-13T04:48:10.494Z,1020.240356
2022-10-13T04:49:09.240Z,1020.203857
2022-10-13T04:51:07.769Z,1020.248108
2022-10-13T04:52:08.982Z,1020.21106
2022-10-13T04:53:09.043Z,1020.232788
2022-10-13T04:54:10.056Z,1020.200806
2022-10-13T04:56:16.417Z,1020.252808
2022-10-13T04:57:15.738Z,1020.169434
2022-10-13T04:58:23.740Z,1020.083801
2022-10-13T04:59:27.839Z,1020.0979
2022-10-13T05:01:29.255Z,1020.197571
2022-10-13T05:02:30.489Z,1020.146545
2022-10-13T05:03:30.990Z,1020.184326
2022-10-13T05:04:29.082Z,1020.195251
2022-10-13T05:05:31.298Z,1020.187317
2022-10-13T05:06:28.690Z,1020.155396
2022-10-13T05:07:32.665Z,1020.125427
2022-10-13T05:08:56.568Z,1020.10675
2022-10-13T05:09:36.970Z,1020.162598
2022-10-13T05:10:37.258Z,1020.119141
2022-10-13T05:11:37.606Z,1020.099731
2022-10-13T05:12:32.753Z,1020.093994
2022-10-13T05:13:33.741Z,1020.09729
2022-10-13T05:14:30.192Z,1020.104858
2022-10-13T05:15:30.308Z,1020.131775
2022-10-13T05:16:38.384Z,1020.065369
2022-10-13T05:17:39.541Z,1020.092285
2022-10-13T05:18:39.430Z,1020.14093
2022-10-13T05:20:39.890Z,1020.133057
2022-10-13T05:21:38.473Z,1020.074158
2022-10-13T05:22:39.988Z,1020.092896
2022-10-13T05:23:34.815Z,1020.055115
2022-10-13T05:24:38.524Z,1020.052307
2022-10-13T05:25:33.976Z,1020.052307
2022-10-13T05:26:35.320Z,1020.130005
2022-10-13T05:27:30.768Z,1020.092285
2022-10-13T05:28:34.100Z,1019.979614
2022-10-13T05:29:27.087Z,1020.00946
2022-10-13T05:30:29.297Z,1020.017334
2022-10-13T05:31:29.481Z,1020.087097
2022-10-13T05:32:24.647Z,1020.095215
2022-10-13T05:33:26.495Z,1020.032776
2022-10-13T05:34:28.100Z,1020.003967
2022-10-13T05:36:32.807Z,1020.091919
2022-10-13T05:37:28.054Z,1020.043945
2022-10-13T05:38:26.153Z,1020.059875
2022-10-13T05:39:24.852Z,1020.108582
2022-10-13T05:40:24.341Z,1020.092712
2022-10-13T05:41:28.061Z,1020.060608
2022-10-13T05:42:23.832Z,1020.125305
2022-10-13T05:43:21.323Z,1020.085815
2022-10-13T05:44:19.543Z,1020.088196
2022-10-13T05:46:09.572Z,1020.087585
2022-10-13T05:46:51.980Z,1020.051819
2022-10-13T05:47:49.967Z,1019.954407
2022-10-13T05:48:52.341Z,1019.930664
2022-10-13T05:50:53.227Z,1020.084595
2022-10-13T05:51:51.709Z,1020.006897
2022-10-13T05:52:47.152Z,1019.990906
2022-10-13T05:53:54.094Z,1020.044617
2022-10-13T05:53:57.823Z,1020.044617
2022-10-13T05:55:45.224Z,1019.812927
2022-10-13T05:56:44.741Z,1019.877563
2022-10-13T05:57:39.425Z,1019.985168
2022-10-13T05:58:42.008Z,1019.861633
2022-10-13T05:59:38.692Z,1019.929688
2022-10-13T06:01:34.319Z,1019.868164
2022-10-13T06:02:37.097Z,1019.978943
2022-10-13T06:03:29.648Z,1019.927551
2022-10-13T06:04:32.921Z,1020.011597
2022-10-13T06:05:27.223Z,1019.920044
2022-10-13T06:06:30.497Z,1019.900635
2022-10-13T06:06:31.745Z,1019.900635
2022-10-13T06:07:26.311Z,1019.941223
2022-10-13T06:08:18.859Z,1019.79834
2022-10-13T06:09:24.544Z,1019.81189
2022-10-13T06:11:25.347Z,1019.96991
2022-10-13T06:12:19.953Z,1019.838745
2022-10-13T06:13:22.300Z,1019.827759
2022-10-13T06:14:16.223Z,1019.787537
2022-10-13T06:16:11.515Z,1019.727905
2022-10-13T06:17:10.777Z,1019.781738
2022-10-13T06:18:12.031Z,1019.795959
2022-10-13T06:19:07.782Z,1019.706909
2022-10-13T06:20:11.841Z,1019.672424
2022-10-13T06:21:04.238Z,1019.795959
2022-10-13T06:22:04.752Z,1019.787537
2022-10-13T06:22:59.746Z,1019.787537
2022-10-13T06:24:45.096Z,1019.74646
2022-10-13T06:26:28.641Z,1019.661072
2022-10-13T06:27:25.515Z,1019.682129
2022-10-13T06:28:24.438Z,1019.827332
2022-10-13T06:29:19.125Z,1019.738586
2022-10-13T06:30:25.801Z,1019.717712
2022-10-13T06:31:22.227Z,1019.688721
2022-10-13T06:32:32.158Z,1019.654419
2022-10-13T06:33:28.825Z,1019.636414
2022-10-13T06:34:25.598Z,1019.738708
2022-10-13T06:35:28.338Z,1019.647339
2022-10-13T06:36:20.264Z,1019.607788
2022-10-13T06:37:23.341Z,1019.695923
2022-10-13T06:37:27.349Z,1019.695923
2022-10-13T06:38:24.729Z,1019.70105
2022-10-13T06:39:19.862Z,1019.668335
2022-10-13T06:40:21.088Z,1019.65741
2022-10-13T06:41:19.506Z,1019.649902
2022-10-13T06:42:19.991Z,1019.630554
2022-10-13T06:43:14.150Z,1019.596191
2022-10-13T06:44:14.006Z,1019.560791
2022-10-13T06:46:13.107Z,1019.596191
2022-10-13T06:47:06.623Z,1019.633972
2022-10-13T06:48:08.717Z,1019.630554
2022-10-13T06:49:03.835Z,1019.654419
2022-10-13T06:50:03.301Z,1019.686401
2022-10-13T06:50:58.480Z,1019.684326
2022-10-13T06:52:07.136Z,1019.749023
2022-10-13T06:52:59.673Z,1019.668335
2022-10-13T06:54:01.555Z,1019.781006
2022-10-13T06:55:02.973Z,1019.727295
2022-10-13T06:56:03.464Z,1019.738037
2022-10-13T06:57:46.746Z,1019.734375
2022-10-13T06:58:26.450Z,1019.650146
2022-10-13T06:59:23.652Z,1019.652283
2022-10-13T07:01:18.322Z,1019.668152
2022-10-13T07:02:22.396Z,1019.708984
2022-10-13T07:03:16.830Z,1019.719849
2022-10-13T07:04:17.610Z,1019.671997
2022-10-13T07:05:11.971Z,1019.776489
2022-10-13T07:06:09.396Z,1019.730835
2022-10-13T07:07:12.902Z,1019.687988
2022-10-13T07:08:04.994Z,1019.698914
2022-10-13T07:09:07.443Z,1019.684937
2022-10-13T07:11:02.812Z,1019.708984
2022-10-13T07:11:55.644Z,1019.643738
2022-10-13T07:12:57.763Z,1019.67572
2022-10-13T07:13:50.875Z,1019.664795
2022-10-13T07:14:56.629Z,1019.662476
2022-10-13T07:15:48.984Z,1019.680847
2022-10-13T07:16:48.479Z,1019.707703
2022-10-13T07:17:43.982Z,1019.705139
2022-10-13T07:18:42.780Z,1019.710266
2022-10-13T07:19:40.934Z,1019.674927
2022-10-13T07:20:35.466Z,1019.701843
2022-10-13T07:21:37.434Z,1019.744812
2022-10-13T07:22:30.019Z,1019.78772
2022-10-13T07:23:32.244Z,1019.75824
2022-10-13T07:24:24.832Z,1019.70105
2022-10-13T07:26:19.127Z,1019.791931
2022-10-13T07:27:21.903Z,1019.788879
2022-10-13T07:28:13.937Z,1019.812988
2022-10-13T07:29:15.999Z,1019.721375
2022-10-13T07:30:09.346Z,1019.723328
2022-10-13T07:31:08.772Z,1019.731506
2022-10-13T07:32:03.503Z,1019.728333
2022-10-13T07:33:00.658Z,1019.722534
2022-10-13T07:34:45.097Z,1019.648621
2022-10-13T07:35:30.265Z,1019.682983
2022-10-13T07:35:31.029Z,1019.682983
2022-10-13T07:36:25.940Z,1019.740234
2022-10-13T07:37:21.508Z,1019.667908
2022-10-13T07:38:20.485Z,1019.691406
2022-10-13T07:39:15.649Z,1019.675476
2022-10-13T07:41:11.301Z,1019.708313
2022-10-13T07:42:10.753Z,1019.638428
2022-10-13T07:43:05.621Z,1019.727661
2022-10-13T07:44:06.337Z,1019.600769
2022-10-13T07:46:03.028Z,1019.589722
2022-10-13T07:46:55.543Z,1019.705872
2022-10-13T07:47:57.503Z,1019.697327
2022-10-13T07:48:50.225Z,1019.60321
2022-10-13T07:49:49.474Z,1019.672913
2022-10-13T07:50:44.616Z,1019.624268
2022-10-13T07:51:43.922Z,1019.609863
2022-10-13T07:52:39.048Z,1019.679626
2022-10-13T07:53:38.501Z,1019.614868
2022-10-13T07:54:33.409Z,1019.657837
2022-10-13T07:56:33.122Z,1019.604004
2022-10-13T07:57:33.145Z,1019.596497
2022-10-13T07:58:25.957Z,1019.671021
2022-10-13T07:59:26.122Z,1019.573425
2022-10-13T08:00:21.455Z,1019.65332
2022-10-13T08:01:23.539Z,1019.620483
2022-10-13T08:02:16.146Z,1019.628113
2022-10-13T08:03:18.219Z,1019.66333
2022-10-13T08:04:13.266Z,1019.668335
2022-10-13T08:06:16.124Z,1019.702942
2022-10-13T08:06:21.798Z,1019.726257
2022-10-13T08:07:21.136Z,1019.674072
2022-10-13T08:08:18.382Z,1019.70166
2022-10-13T08:09:18.738Z,1019.62085
2022-10-13T08:10:15.528Z,1019.696716
2022-10-13T08:11:16.821Z,1019.684204
2022-10-13T08:12:12.529Z,1019.727905
2022-10-13T08:13:14.960Z,1019.747131
2022-10-13T08:14:10.388Z,1019.726074
2022-10-13T08:16:05.940Z,1019.675049
2022-10-13T08:17:03.921Z,1019.694214
2022-10-13T08:18:01.870Z,1019.64032
2022-10-13T08:19:05.652Z,1019.651306
2022-10-13T08:19:58.966Z,1019.690979
2022-10-13T08:21:59.527Z,1019.612427
2022-10-13T08:22:57.125Z,1019.597412
2022-10-13T08:23:52.588Z,1019.62085
2022-10-13T08:24:53.174Z,1019.618469
2022-10-13T08:25:48.820Z,1019.596497
2022-10-13T08:26:51.742Z,1019.700867
2022-10-13T08:27:51.206Z,1019.697632
2022-10-13T08:27:51.642Z,1019.697632
2022-10-13T08:28:57.515Z,1019.64093
2022-10-13T08:29:02.967Z,1019.64093
2022-10-13T08:29:42.018Z,1019.712708
2022-10-13T08:31:44.286Z,1019.665955
2022-10-13T08:32:40.053Z,1019.681824
2022-10-13T08:33:37.926Z,1019.654846
2022-10-13T08:34:40.941Z,1019.692871
2022-10-13T08:36:34.280Z,1019.673706
2022-10-13T08:37:29.615Z,1019.65271
2022-10-13T08:38:30.025Z,1019.663696
2022-10-13T08:38:37.429Z,1019.690674
2022-10-13T08:39:37.413Z,1019.730774
2022-10-13T08:41:14.502Z,1019.702271
2022-10-13T08:41:55.091Z,1019.701111
2022-10-13T08:42:57.987Z,1019.687683
2022-10-13T08:43:00.597Z,1019.687683
2022-10-13T08:44:33.013Z,1019.66571
2022-10-13T08:44:40.925Z,1019.66571
2022-10-13T08:45:28.362Z,1019.662292
2022-10-13T08:45:46.572Z,1019.695984
2022-10-13T08:46:46.015Z,1019.658142
2022-10-13T08:47:42.515Z,1019.728027
2022-10-13T08:48:42.258Z,1019.715088
2022-10-13T08:49:39.511Z,1019.686646
2022-10-13T08:51:32.601Z,1019.71106
2022-10-13T08:52:31.639Z,1019.787048
2022-10-13T08:53:26.743Z,1019.720642
2022-10-13T08:54:26.704Z,1019.761108
2022-10-13T08:55:21.880Z,1019.672729
2022-10-13T08:56:23.698Z,1019.648315
2022-10-13T08:57:16.213Z,1019.729126
2022-10-13T08:58:16.533Z,1019.694763
2022-10-13T08:59:11.254Z,1019.702271
2022-10-13T09:00:10.691Z,1019.640808
2022-10-13T09:01:05.117Z,1019.729126
2022-10-13T09:02:07.345Z,1019.62146
2022-10-13T09:02:59.696Z,1019.659363
2022-10-13T09:04:00.265Z,1019.602844
2022-10-13T09:04:54.884Z,1019.583435
2022-10-13T09:05:54.415Z,1019.556519
2022-10-13T09:06:49.622Z,1019.534607
2022-10-13T09:07:51.543Z,1019.42688
2022-10-13T09:08:46.404Z,1019.478088
2022-10-13T09:09:41.493Z,1019.377869
2022-10-13T09:10:44.404Z,1019.43927
2022-10-13T09:11:37.810Z,1019.446777
2022-10-13T09:12:39.669Z,1019.405701
2022-10-13T09:13:35.064Z,1019.458496
2022-10-13T09:15:20.539Z,1019.425964
2022-10-13T09:15:59.860Z,1019.454224
2022-10-13T09:16:58.839Z,1019.379822
2022-10-13T09:17:55.525Z,1019.408569
2022-10-13T09:18:55.220Z,1019.392578
2022-10-13T09:20:55.853Z,1019.389648
2022-10-13T09:21:49.286Z,1019.467407
2022-10-13T09:22:45.727Z,1019.286682
2022-10-13T09:23:45.604Z,1019.391479
2022-10-13T09:24:40.664Z,1019.321533
2022-10-13T09:25:41.028Z,1019.369385
2022-10-13T09:26:36.124Z,1019.339905
2022-10-13T09:27:36.458Z,1019.257141
2022-10-13T09:28:31.909Z,1019.310059
2022-10-13T09:29:34.043Z,1019.329407
2022-10-13T09:30:26.633Z,1019.345276
2022-10-13T09:31:28.918Z,1019.379883
2022-10-13T09:32:21.997Z,1019.283142
2022-10-13T09:33:21.256Z,1019.245056
2022-10-13T09:34:22.039Z,1019.210632
2022-10-13T09:36:12.927Z,1019.253479
2022-10-13T09:37:14.705Z,1019.258301
2022-10-13T09:38:07.247Z,1019.231384
2022-10-13T09:39:05.063Z,1019.265991
2022-10-13T09:40:05.104Z,1019.262695
2022-10-13T09:41:00.470Z,1019.2677
2022-10-13T09:42:03.132Z,1019.210876
2022-10-13T09:42:56.096Z,1019.301636
2022-10-13T09:43:59.034Z,1019.338379
2022-10-13T09:44:53.332Z,1019.281311
2022-10-13T09:46:20.666Z,1019.22876
2022-10-13T09:46:58.090Z,1019.227539
2022-10-13T09:47:57.185Z,1019.231201
2022-10-13T09:48:57.001Z,1019.21698
2022-10-13T09:49:52.718Z,1019.228088
2022-10-13T09:50:53.433Z,1019.237793
2022-10-13T09:51:49.645Z,1019.245972
2022-10-13T09:52:50.256Z,1019.24762
2022-10-13T09:53:46.357Z,1019.222595
2022-10-13T09:54:46.359Z,1019.233704
2022-10-13T09:55:41.920Z,1019.284302
2022-10-13T09:56:45.411Z,1019.230408
2022-10-13T09:57:38.807Z,1019.1875
2022-10-13T09:58:39.043Z,1019.230408
2022-10-13T09:59:35.281Z,1019.260681
2022-10-13T10:00:35.579Z,1019.279541
2022-10-13T10:01:31.120Z,1019.233704
2022-10-13T10:02:31.043Z,1019.210938
2022-10-13T10:03:32.306Z,1019.165466
2022-10-13T10:04:26.055Z,1019.186096
2022-10-13T10:06:24.091Z,1019.135864
2022-10-13T10:07:23.383Z,1019.137207
2022-10-13T10:08:22.628Z,1019.106995
2022-10-13T10:08:33.213Z,1019.106995
2022-10-13T10:08:33.909Z,1019.106995
2022-10-13T10:09:21.185Z,1019.078796
2022-10-13T10:10:17.333Z,1019.104309
2022-10-13T10:11:18.592Z,1019.06012
2022-10-13T10:12:14.905Z,1019.066345
2022-10-13T10:13:18.149Z,1018.996399
2022-10-13T10:14:12.358Z,1018.991455
2022-10-13T10:16:08.731Z,1018.990173
2022-10-13T10:17:07.209Z,1018.974182
2022-10-13T10:18:10.570Z,1018.974304
2022-10-13T10:19:04.180Z,1018.987488
2022-10-13T10:20:04.970Z,1019.041504
2022-10-13T10:21:01.171Z,1018.967957
2022-10-13T10:22:02.075Z,1018.965454
2022-10-13T10:22:58.164Z,1018.911377
2022-10-13T10:23:57.046Z,1018.984009
2022-10-13T10:24:57.753Z,1018.942749
2022-10-13T10:25:53.739Z,1019.031799
2022-10-13T10:26:56.961Z,1018.955566
2022-10-13T10:27:51.277Z,1018.917603
2022-10-13T10:28:54.084Z,1018.960449
2022-10-13T10:29:48.570Z,1018.930115
2022-10-13T10:31:26.553Z,1018.890991
2022-10-13T10:32:06.061Z,1018.978271
2022-10-13T10:33:04.363Z,1018.944946
2022-10-13T10:34:04.220Z,1018.887878
2022-10-13T10:35:59.630Z,1018.851257
2022-10-13T10:36:55.164Z,1018.848083
2022-10-13T10:37:55.711Z,1018.883179
2022-10-13T10:38:51.042Z,1018.786194
2022-10-13T10:39:51.337Z,1018.862366
2022-10-13T10:41:47.632Z,1018.802063
2022-10-13T10:42:42.921Z,1018.802063
2022-10-13T10:43:43.165Z,1018.81311
2022-10-13T10:44:39.679Z,1018.758972
2022-10-13T10:46:35.013Z,1018.757629
2022-10-13T10:47:35.415Z,1018.754517
2022-10-13T10:48:30.797Z,1018.697449
2022-10-13T10:49:30.260Z,1018.755676
2022-10-13T10:51:24.406Z,1018.805603
2022-10-13T10:52:27.186Z,1018.790955
2022-10-13T10:53:20.101Z,1018.768677
2022-10-13T10:54:23.252Z,1018.843506
2022-10-13T10:56:16.707Z,1018.751404
2022-10-13T10:57:12.282Z,1018.776917
2022-10-13T10:58:15.206Z,1018.673584
2022-10-13T10:59:08.166Z,1018.640381
2022-10-13T11:00:11.395Z,1018.729187
2022-10-13T11:01:04.816Z,1018.621094
2022-10-13T11:02:02.190Z,1018.668823
2022-10-13T11:03:02.469Z,1018.576599
2022-10-13T11:03:57.858Z,1018.641785
2022-10-13T11:05:56.131Z,1018.519043
2022-10-13T11:06:51.784Z,1018.532227
2022-10-13T11:07:55.001Z,1018.49408
2022-10-13T11:08:47.942Z,1018.506348
2022-10-13T11:10:27.244Z,1018.504883
2022-10-13T11:11:06.587Z,1018.436401
2022-10-13T11:12:04.598Z,1018.473022
2022-10-13T11:13:04.460Z,1018.450745
2022-10-13T11:13:59.664Z,1018.415833
2022-10-13T11:14:59.900Z,1018.418884
2022-10-13T11:15:55.189Z,1018.379272
2022-10-13T11:16:55.137Z,1018.39032
2022-10-13T11:17:50.330Z,1018.358521
2022-10-13T11:18:50.016Z,1018.385498
2022-10-13T11:19:45.417Z,1018.388672
2022-10-13T11:20:44.975Z,1018.39679
2022-10-13T11:21:40.293Z,1018.400208
2022-10-13T11:22:39.785Z,1018.407715
2022-10-13T11:23:34.889Z,1018.427307
2022-10-13T11:24:37.277Z,1018.484131
2022-10-13T11:25:30.052Z,1018.46814
2022-10-13T11:26:29.854Z,1018.514771
2022-10-13T11:27:26.065Z,1018.49884
2022-10-13T11:28:23.628Z,1018.385925
2022-10-13T11:29:25.767Z,1018.469788
2022-10-13T11:30:18.222Z,1018.462097
2022-10-13T11:31:18.208Z,1018.41925
2022-10-13T11:32:13.620Z,1018.425598